METAR Data
IDs: Format: Raw Decoded Include TAF

Data at: 2216 UTC 02 Aug 2021

KBIH 022156Z AUTO 17013G17KT 10SM CLR 38/M01 A3012 RMK AO2 SLP141 T03781006
KBIH 022056Z AUTO 15015G19KT 10SM CLR 37/01 A3015 RMK AO2 SLP149 T03720006 58022
KBIH 021956Z AUTO 15011G21KT 10SM CLR 37/01 A3017 RMK AO2 SLP154 T03670011
KBIH 021856Z AUTO 15014KT 10SM CLR 35/04 A3020 RMK AO2 SLP165 T03500044
KBIH 021756Z AUTO VRB03KT 10SM CLR 32/07 A3022 RMK AO2 SLP171 T03220072 10322 20150 58011
KBIH 021656Z AUTO 00000KT 10SM CLR 30/07 A3023 RMK AO2 SLP182 T03000072
KBIH 021556Z AUTO 33004KT 10SM CLR 27/08 A3025 RMK AO2 SLP187 T02720083
KBIH 021456Z AUTO 00000KT 10SM CLR 23/08 A3026 RMK AO2 SLP191 T02280083 51015
KBIH 021356Z AUTO 32005KT 10SM CLR 18/07 A3025 RMK AO2 SLP191 T01780072
KBIH 021256Z AUTO 34006KT 10SM CLR 15/06 A3023 RMK AO2 SLP184 T01500056
KBIH 021156Z AUTO 00000KT 10SM CLR 17/06 A3021 RMK AO2 SLP177 T01670056 10289 20167 53005
KBIH 021056Z AUTO 30003KT 10SM CLR 18/06 A3020 RMK AO2 SLP172 T01830061
KBIH 020956Z AUTO 34004KT 10SM CLR 19/07 A3019 RMK AO2 SLP169 T01940067
KBIH 020856Z AUTO 00000KT 10SM CLR 22/06 A3019 RMK AO2 SLP167 T02170061 51007
KBIH 020756Z AUTO 29007KT 10SM CLR 24/06 A3019 RMK AO2 SLP166 T02390056 403670150
KBIH 020656Z AUTO 35005KT 10SM CLR 25/07 A3019 RMK AO2 SLP163 T02500072
KBIH 020556Z AUTO 28008KT 10SM BKN110 29/06 A3017 RMK AO2 SLP157 T02890056 10361 20256 51021
KBIH 020456Z AUTO 35008KT 10SM FEW110 26/09 A3017 RMK AO2 PK WND 35027/0408 TSB0359E14B24E39 SLP161 T02560094
KBIH 020444Z AUTO 34010KT 10SM SCT110 26/09 A3017 RMK AO2 PK WND 35027/0408 TSB0359E14B24E39 T02610094
KBIH 020430Z AUTO 03008G21KT 10SM TS BKN110 28/07 A3015 RMK AO2 PK WND 35027/0408 TSB0359E14B24 T02830072
KBIH 020415Z AUTO 36016G27KT 10SM BKN110 29/06 A3014 RMK AO2 PK WND 35027/0408 TSB0359E14 T02940056
KBIH 020405Z AUTO 36016G21KT 10SM TS BKN110 29/06 A3014 RMK AO2 TSB0359 T02890061
KBIH 020356Z AUTO 33016G20KT 10SM BKN110 29/07 A3014 RMK AO2 SLP149 T02890067
KBIH 020256Z AUTO 14006KT 10SM CLR 31/08 A3010 RMK AO2 SLP139 T03110078 53002
KBIH 020156Z AUTO 17003KT 10SM CLR 34/07 A3009 RMK AO2 SLP135 T03390067
KBIH 020056Z AUTO 19005KT 10SM CLR 35/06 A3009 RMK AO2 SLP136 T03500056
KBIH 012356Z AUTO 20008KT 10SM CLR 36/06 A3009 RMK AO2 SLP136 T03560056 10367 20294 56017
KBIH 012256Z AUTO 17012G15KT 10SM CLR 36/06 A3011 RMK AO2 SLP138 T03610056
KBIH 012156Z AUTO 19003KT 10SM CLR 35/06 A3012 RMK AO2 LTG DSNT NW SLP146 T03500056
KBIH 012056Z AUTO VRB05G16KT 10SM CLR 34/07 A3015 RMK AO2 SLP154 T03440067 58022
KBIH 011956Z AUTO 17007KT 150V220 10SM CLR 33/08 A3017 RMK AO2 SLP164 T03280078
KBIH 011856Z AUTO VRB03KT 10SM CLR 32/09 A3020 RMK AO2 SLP173 T03220089
KBIH 011756Z AUTO VRB03KT 10SM CLR 30/09 A3022 RMK AO2 SLP180 T03000089 10300 20150 58009
KBIH 011656Z AUTO 31003KT 10SM CLR 28/09 A3024 RMK AO2 SLP186 T02780094
KBIH 011556Z AUTO 04003KT 10SM CLR 26/10 A3025 RMK AO2 SLP190 T02560100
KBIH 011456Z AUTO 00000KT 10SM CLR 22/09 A3025 RMK AO2 SLP194 T02220094 51013
KBIH 011356Z AUTO 31004KT 10SM CLR 18/09 A3025 RMK AO2 SLP193 T01780094
KBIH 011256Z AUTO 34005KT 10SM CLR 16/08 A3023 RMK AO2 SLP188 T01560083
KBIH 011156Z AUTO 31004KT 10SM CLR 17/09 A3021 RMK AO2 SLP181 T01720089 10239 20172 53002
KBIH 011056Z AUTO 28008KT 10SM CLR 19/09 A3021 RMK AO2 SLP179 T01890089